Time;durP1;ratioP1;P1;durP2;ratioP2;P2;SDS_P1;SDS_P2;PMS_P1;PMS_P2;Temp;Humidity;BMP_temperature;BMP_pressure;BME280_temperature;BME280_humidity;BME280_pressure;Samples;Min_cycle;Max_cycle;Signal;HPM_P1;HPM_P2
2023/06/12 00:00:54;;;;;;;11.43;5.28;;;;;;;20.38;58.32;101245.19;4996014;28;20065;-74
2023/06/12 00:03:25;;;;;;;11.25;5.85;;;;;;;20.35;57.92;101253.47;4981962;28;21664;-74
2023/06/12 00:05:51;;;;;;;9.27;5.22;;;;;;;20.33;58.25;101250.25;4980936;28;20058;-74
2023/06/12 00:08:17;;;;;;;9.60;5.15;;;;;;;20.30;58.35;101253.28;4984654;28;20046;-74
2023/06/12 00:10:47;;;;;;;11.65;5.55;;;;;;;20.27;58.56;101245.84;5000513;28;20234;-74
2023/06/12 00:13:13;;;;;;;7.65;5.30;;;;;;;20.22;58.50;101249.06;4998452;28;20096;-74
2023/06/12 00:15:39;;;;;;;9.93;5.13;;;;;;;20.19;58.73;101251.31;5001454;28;20123;-74
2023/06/12 00:18:05;;;;;;;11.80;5.07;;;;;;;20.10;59.45;101252.56;4984203;28;20691;-74
2023/06/12 00:20:31;;;;;;;9.15;4.90;;;;;;;19.97;59.98;101253.44;5001782;28;20034;-75
2023/06/12 00:22:57;;;;;;;8.05;5.25;;;;;;;19.86;60.50;101248.81;5000277;28;20045;-74
2023/06/12 00:25:26;;;;;;;8.30;5.20;;;;;;;19.80;60.79;101251.25;5004629;28;20029;-75
2023/06/12 00:27:52;;;;;;;7.32;5.15;;;;;;;19.78;60.88;101257.75;5002392;28;20042;-73
2023/06/12 00:30:18;;;;;;;9.50;5.68;;;;;;;19.74;61.11;101252.09;5003246;28;20042;-73
2023/06/12 00:32:44;;;;;;;7.90;5.25;;;;;;;19.71;61.11;101257.72;5004621;28;20858;-75
2023/06/12 00:35:09;;;;;;;11.70;5.18;;;;;;;19.68;61.40;101252.06;5002560;28;20054;-74
2023/06/12 00:37:35;;;;;;;7.82;5.10;;;;;;;19.65;61.54;101253.28;4999566;28;20515;-74
2023/06/12 00:40:04;;;;;;;7.25;5.15;;;;;;;19.60;61.76;101248.63;4985411;28;20038;-74
2023/06/12 00:42:35;;;;;;;12.48;4.90;;;;;;;19.58;61.55;101253.28;5004785;28;20488;-74
2023/06/12 00:45:00;;;;;;;7.28;5.28;;;;;;;19.54;61.94;101246.81;5003754;28;21017;-74
2023/06/12 00:47:26;;;;;;;9.05;5.53;;;;;;;19.46;62.39;101247.03;4985520;28;20030;-74
2023/06/12 00:49:52;;;;;;;8.35;5.78;;;;;;;19.37;62.65;101240.38;5004035;28;20046;-74
2023/06/12 00:52:19;;;;;;;9.43;4.90;;;;;;;19.28;63.04;101242.38;5003997;28;20400;-74
2023/06/12 00:54:46;;;;;;;8.30;5.45;;;;;;;19.19;63.29;101243.59;5000764;28;20521;-74
2023/06/12 00:57:12;;;;;;;7.10;4.75;;;;;;;19.11;63.40;101241.97;4984858;28;20022;-74
2023/06/12 00:59:37;;;;;;;9.30;5.47;;;;;;;19.06;63.67;101244.41;4994058;28;20054;-74
2023/06/12 01:02:04;;;;;;;8.30;5.47;;;;;;;19.01;64.00;101238.94;4983926;28;20026;-74
2023/06/12 01:04:30;;;;;;;10.18;4.82;;;;;;;18.97;64.20;101249.06;4996632;28;20046;-74
2023/06/12 01:07:40;;;;;;;8.85;5.28;;;;;;;18.92;64.30;101242.78;4987590;28;20501;-75
2023/06/12 01:10:12;;;;;;;8.70;4.72;;;;;;;18.89;64.35;101248.44;4993389;28;20076;-74
2023/06/12 01:12:41;;;;;;;8.25;5.45;;;;;;;18.73;65.18;101242.50;5004738;28;20477;-74
2023/06/12 01:15:07;;;;;;;8.15;4.70;;;;;;;18.47;66.06;101238.81;5003033;28;20116;-74
2023/06/12 01:17:32;;;;;;;7.97;5.63;;;;;;;18.28;66.62;101240.34;5004849;28;20026;-74
2023/06/12 01:20:03;;;;;;;7.85;5.47;;;;;;;18.16;67.03;101231.44;4987799;28;20038;-74
2023/06/12 01:22:33;;;;;;;7.95;5.25;;;;;;;18.17;67.26;101230.41;5004105;28;20086;-74
2023/06/12 01:25:17;;;;;;;8.27;5.20;;;;;;;18.20;67.21;101227.41;5005099;28;20056;-74
2023/06/12 01:28:00;;;;;;;9.50;5.20;;;;;;;18.21;67.17;101228.22;4990395;28;20030;-74
2023/06/12 01:31:01;;;;;;;9.73;6.00;;;;;;;18.15;67.21;101221.13;5016885;28;20116;-74
2023/06/12 01:33:35;;;;;;;9.98;5.25;;;;;;;17.98;67.83;101231.94;4994731;28;20477;-74
2023/06/12 01:36:03;;;;;;;10.32;5.82;;;;;;;17.87;68.56;101228.06;4997489;28;20033;-74
2023/06/12 01:38:32;;;;;;;9.10;5.43;;;;;;;17.77;68.86;101238.06;4988750;28;20034;-74
2023/06/12 01:40:59;;;;;;;9.15;5.55;;;;;;;17.69;69.17;101233.00;5002651;28;20030;-74
2023/06/12 01:43:25;;;;;;;8.93;5.55;;;;;;;17.69;69.24;101239.03;4997688;28;20121;-74
2023/06/12 01:45:51;;;;;;;8.35;5.22;;;;;;;17.70;69.25;101230.16;4983746;28;20118;-74
2023/06/12 01:48:17;;;;;;;6.82;5.15;;;;;;;17.73;68.96;101228.97;4978417;28;20054;-74
2023/06/12 01:50:43;;;;;;;8.90;5.65;;;;;;;17.72;68.89;101232.59;4983452;28;20030;-74
2023/06/12 01:53:13;;;;;;;10.85;5.50;;;;;;;17.73;68.64;101228.16;4985188;28;20026;-74
2023/06/12 01:55:41;;;;;;;10.18;5.38;;;;;;;17.74;68.55;101225.31;4968908;28;20040;-74
2023/06/12 01:58:08;;;;;;;9.90;5.10;;;;;;;17.76;68.30;101225.13;4998450;28;20032;-74
2023/06/12 02:00:57;;;;;;;8.30;5.38;;;;;;;17.74;68.42;101232.41;4984719;28;20402;-74
2023/06/12 02:03:24;;;;;;;9.45;5.15;;;;;;;17.65;68.80;101229.94;4970619;28;20044;-74
2023/06/12 02:05:50;;;;;;;8.07;5.50;;;;;;;17.59;68.84;101233.31;5005168;28;20057;-73
2023/06/12 02:08:15;;;;;;;7.95;5.28;;;;;;;17.57;68.31;101227.44;4998406;28;20030;-74
2023/06/12 02:10:41;;;;;;;8.27;4.80;;;;;;;17.59;67.89;101228.06;4983192;28;20118;-74
2023/06/12 02:13:07;;;;;;;7.45;5.10;;;;;;;17.55;67.95;101236.50;4972448;28;20548;-74
2023/06/12 02:15:32;;;;;;;8.15;5.30;;;;;;;17.47;68.33;101234.84;4971334;28;20459;-74
2023/06/12 02:18:00;;;;;;;7.63;5.30;;;;;;;17.39;68.55;101232.38;4997935;28;20090;-75
2023/06/12 02:20:28;;;;;;;6.95;4.75;;;;;;;17.37;68.74;101237.00;4988044;28;20070;-74
2023/06/12 02:22:53;;;;;;;8.40;5.30;;;;;;;17.32;68.86;101238.38;4986595;28;20377;-74
2023/06/12 02:25:19;;;;;;;8.10;5.22;;;;;;;17.20;69.52;101245.13;5004062;28;20072;-74
2023/06/12 02:27:44;;;;;;;6.65;4.93;;;;;;;17.08;70.01;101234.34;5006088;28;20053;-74
2023/06/12 02:30:10;;;;;;;11.10;5.15;;;;;;;16.93;70.65;101236.22;5004920;28;20054;-74
2023/06/12 02:32:37;;;;;;;7.25;4.95;;;;;;;16.70;71.50;101236.38;5005220;28;20036;-74
2023/06/12 02:35:08;;;;;;;7.35;5.53;;;;;;;16.57;71.79;101237.03;5004195;28;20038;-74
2023/06/12 02:37:35;;;;;;;9.65;5.15;;;;;;;16.52;72.09;101234.16;5009707;28;20520;-74
2023/06/12 02:40:01;;;;;;;8.63;5.32;;;;;;;16.46;72.59;101227.88;5006179;28;20042;-74
2023/06/12 02:42:27;;;;;;;9.82;5.57;;;;;;;16.44;72.70;101232.44;5006916;28;20455;-75
2023/06/12 02:44:53;;;;;;;10.57;5.70;;;;;;;16.44;72.92;101232.44;4973935;28;20122;-74
2023/06/12 02:47:20;;;;;;;5.68;4.47;;;;;;;16.46;73.04;101238.34;4986708;28;20034;-74
2023/06/12 02:49:46;;;;;;;7.25;4.93;;;;;;;16.39;73.15;101234.81;4986260;28;20795;-74
2023/06/12 02:52:20;;;;;;;14.18;5.75;;;;;;;16.34;73.46;101237.97;4985134;28;20030;-73
2023/06/12 02:54:46;;;;;;;6.47;4.80;;;;;;;16.32;73.72;101245.19;4999796;28;20364;-74
2023/06/12 02:57:11;;;;;;;9.10;5.63;;;;;;;16.28;74.08;101233.50;4990411;28;20680;-74
2023/06/12 02:59:37;;;;;;;9.02;5.07;;;;;;;16.21;74.21;101245.66;4992949;28;20034;-74
2023/06/12 03:02:12;;;;;;;7.72;4.95;;;;;;;16.07;74.91;101239.47;4969793;28;20057;-74
2023/06/12 03:04:41;;;;;;;8.50;5.25;;;;;;;16.00;75.18;101245.59;4992901;28;20045;-74
2023/06/12 03:07:07;;;;;;;9.10;5.63;;;;;;;15.98;75.40;101248.41;4984014;28;20031;-74
2023/06/12 03:09:34;;;;;;;11.23;5.47;;;;;;;15.99;75.48;101241.34;4998145;28;20068;-74
2023/06/12 03:12:00;;;;;;;9.32;5.60;;;;;;;16.05;75.43;101236.22;5007415;28;20034;-74
2023/06/12 03:14:26;;;;;;;9.38;5.82;;;;;;;16.11;75.31;101237.31;5002772;28;20125;-74
2023/06/12 03:16:52;;;;;;;9.35;5.30;;;;;;;16.17;75.09;101236.56;5004342;28;20019;-74
2023/06/12 03:19:17;;;;;;;8.18;5.60;;;;;;;16.20;74.99;101244.06;4976059;28;20100;-74
2023/06/12 03:21:43;;;;;;;8.52;5.90;;;;;;;16.24;74.60;101244.50;4984530;28;20026;-73
2023/06/12 03:24:09;;;;;;;8.68;5.47;;;;;;;16.26;74.39;101247.75;4983447;28;20038;-74
2023/06/12 03:26:35;;;;;;;8.63;5.47;;;;;;;16.25;74.26;101240.88;4985366;28;20053;-74
2023/06/12 03:29:01;;;;;;;9.35;5.60;;;;;;;16.25;74.19;101246.13;4979729;28;20129;-74
2023/06/12 03:31:29;;;;;;;8.43;5.47;;;;;;;16.27;73.92;101246.75;4966443;28;20030;-73
2023/06/12 03:33:56;;;;;;;7.28;5.00;;;;;;;16.27;73.68;101244.94;4968349;28;20093;-74
2023/06/12 03:36:26;;;;;;;9.52;5.45;;;;;;;16.26;73.49;101240.72;4982329;28;20058;-73
2023/06/12 03:38:52;;;;;;;9.75;5.57;;;;;;;16.26;73.66;101245.94;4986956;28;20594;-74
2023/06/12 03:41:20;;;;;;;8.48;5.65;;;;;;;16.24;73.64;101242.69;4982933;28;20065;-74
2023/06/12 03:43:45;;;;;;;8.30;5.75;;;;;;;16.24;73.58;101247.13;4986415;28;20045;-74
2023/06/12 03:46:11;;;;;;;8.88;5.32;;;;;;;16.23;73.57;101245.50;4984071;28;20031;-74
2023/06/12 03:48:37;;;;;;;10.10;5.57;;;;;;;16.23;73.61;101250.72;4986835;28;20049;-73
2023/06/12 03:51:04;;;;;;;8.23;5.00;;;;;;;16.21;73.59;101250.09;4983214;28;20030;-74
2023/06/12 03:53:29;;;;;;;9.52;5.30;;;;;;;16.19;73.67;101245.03;4983541;28;20515;-74
2023/06/12 03:55:55;;;;;;;25.02;5.90;;;;;;;16.18;73.61;101243.44;4983541;28;20030;-74
2023/06/12 03:58:22;;;;;;;9.57;5.82;;;;;;;16.18;73.70;101238.19;4983223;28;20446;-74
2023/06/12 04:00:47;;;;;;;6.80;4.97;;;;;;;16.19;74.02;101241.63;4982275;28;20026;-73
2023/06/12 04:03:17;;;;;;;8.82;4.75;;;;;;;16.19;74.35;101245.03;4972679;28;20125;-74
2023/06/12 04:05:50;;;;;;;7.45;5.22;;;;;;;16.20;74.71;101241.44;5002416;28;20026;-74
2023/06/12 04:08:16;;;;;;;7.55;4.95;;;;;;;16.21;74.97;101250.09;4984208;28;20031;-74
2023/06/12 04:10:43;;;;;;;6.43;4.63;;;;;;;16.22;74.87;101247.31;5002634;28;20064;-73
2023/06/12 04:13:09;;;;;;;7.97;5.50;;;;;;;16.22;75.02;101247.31;5003214;28;20025;-73
2023/06/12 04:15:36;;;;;;;9.82;5.50;;;;;;;16.23;75.05;101250.72;4967413;28;20038;-73
2023/06/12 04:18:04;;;;;;;7.28;5.38;;;;;;;16.23;75.41;101248.91;4968626;28;20030;-74
2023/06/12 04:20:32;;;;;;;10.13;5.05;;;;;;;16.22;75.44;101249.94;5004783;28;20042;-74
2023/06/12 04:22:58;;;;;;;9.45;5.00;;;;;;;16.18;75.55;101248.66;5019055;28;20033;-74
2023/06/12 04:25:28;;;;;;;12.23;6.45;;;;;;;16.19;75.70;101252.09;4983068;28;20057;-74
2023/06/12 04:27:53;;;;;;;8.27;5.20;;;;;;;16.20;75.58;101245.84;4976490;28;20101;-73
2023/06/12 04:30:21;;;;;;;8.98;5.07;;;;;;;16.24;75.80;101250.53;4979719;28;20062;-74
2023/06/12 04:32:48;;;;;;;8.77;5.28;;;;;;;16.27;75.69;101244.94;4979670;28;20078;-74
2023/06/12 04:35:19;;;;;;;8.23;5.35;;;;;;;16.33;75.50;101253.84;4986965;28;20050;-74
2023/06/12 04:37:48;;;;;;;9.23;5.15;;;;;;;16.38;75.79;101250.72;5019928;28;20032;-74
2023/06/12 04:40:15;;;;;;;6.65;5.03;;;;;;;16.42;76.05;101249.34;5003744;28;20125;-73
2023/06/12 04:42:43;;;;;;;9.35;5.57;;;;;;;16.45;75.97;101249.78;5005944;28;20029;-74
2023/06/12 04:45:12;;;;;;;10.98;4.80;;;;;;;16.49;75.97;101248.41;5001382;28;20046;-74
2023/06/12 04:47:40;;;;;;;7.78;5.20;;;;;;;16.55;75.74;101246.88;5004440;28;20034;-74
2023/06/12 04:50:09;;;;;;;8.32;4.80;;;;;;;16.60;75.39;101248.97;5004525;28;20049;-73
2023/06/12 04:52:35;;;;;;;9.20;5.40;;;;;;;16.65;75.61;101254.44;5005028;28;20113;-73
2023/06/12 04:55:01;;;;;;;7.38;5.28;;;;;;;16.69;75.04;101259.13;4998470;28;20129;-74
2023/06/12 04:57:27;;;;;;;7.28;5.15;;;;;;;16.74;74.65;101256.78;5004059;28;20048;-73
2023/06/12 04:59:53;;;;;;;10.00;4.82;;;;;;;16.81;74.64;101256.03;4987508;28;20609;-73
2023/06/12 05:02:19;;;;;;;9.55;5.25;;;;;;;16.85;75.24;101258.09;4985931;28;20085;-74
2023/06/12 05:04:44;;;;;;;8.35;5.13;;;;;;;16.92;75.30;101253.75;4983848;28;20050;-72
2023/06/12 05:07:16;;;;;;;10.00;4.85;;;;;;;17.01;75.13;101264.09;5001985;28;20040;-74
2023/06/12 05:09:45;;;;;;;7.05;4.70;;;;;;;17.08;75.00;101260.56;4987042;28;20042;-73
2023/06/12 05:12:11;;;;;;;7.47;5.40;;;;;;;17.17;74.74;101261.22;5004051;28;20052;-74
2023/06/12 05:14:41;;;;;;;7.93;5.18;;;;;;;17.28;73.90;101252.84;4985310;28;20077;-74
2023/06/12 05:17:07;;;;;;;6.65;5.05;;;;;;;17.41;73.89;101261.81;5002314;28;20022;-73
2023/06/12 05:19:32;;;;;;;6.85;4.70;;;;;;;17.51;71.49;101257.06;5003034;28;20566;-73
2023/06/12 05:21:59;;;;;;;11.07;5.30;;;;;;;17.64;69.77;101253.72;5004314;28;20555;-73
2023/06/12 05:24:24;;;;;;;7.20;4.88;;;;;;;17.78;69.15;101254.59;4999913;28;20045;-74
2023/06/12 05:26:50;;;;;;;12.55;4.95;;;;;;;17.94;68.64;101250.91;5004848;28;20037;-73
2023/06/12 05:29:17;;;;;;;6.50;4.50;;;;;;;18.13;64.48;101254.63;5002758;28;20049;-74
2023/06/12 05:31:43;;;;;;;8.93;4.00;;;;;;;18.33;64.02;101258.16;5002990;28;20045;-73
2023/06/12 05:34:08;;;;;;;7.75;5.15;;;;;;;18.54;63.67;101256.41;5015764;28;20069;-74
2023/06/12 05:36:35;;;;;;;9.18;5.35;;;;;;;18.73;63.96;101260.91;5003144;28;20030;-74
2023/06/12 05:39:02;;;;;;;7.45;4.63;;;;;;;18.92;63.88;101255.91;5003759;28;20560;-74
2023/06/12 05:41:29;;;;;;;10.73;4.88;;;;;;;19.10;63.43;101257.94;5003072;28;20030;-74
2023/06/12 05:43:54;;;;;;;8.10;4.57;;;;;;;19.30;62.98;101255.34;4990893;28;20504;-74
2023/06/12 05:46:20;;;;;;;7.15;4.53;;;;;;;19.56;59.57;101247.41;5007524;28;20092;-74
2023/06/12 05:48:46;;;;;;;7.47;4.82;;;;;;;19.75;59.38;101260.78;5006291;28;20054;-73
2023/06/12 05:51:12;;;;;;;8.68;4.28;;;;;;;19.93;59.16;101254.84;5004001;28;20452;-73
2023/06/12 05:53:38;;;;;;;13.27;4.90;;;;;;;20.12;59.00;101261.09;5005660;28;20093;-74
2023/06/12 05:56:04;;;;;;;5.90;4.47;;;;;;;20.17;59.69;101256.00;5004849;28;20041;-74
2023/06/12 05:58:30;;;;;;;12.38;5.32;;;;;;;20.48;58.73;101265.78;5002265;28;20053;-74
2023/06/12 06:00:55;;;;;;;7.05;4.63;;;;;;;20.75;57.41;101261.19;4989374;28;20026;-74
2023/06/12 06:03:45;;;;;;;11.13;4.97;;;;;;;21.04;57.05;101260.81;4986802;28;20061;-74
2023/06/12 06:06:13;;;;;;;13.45;5.15;;;;;;;21.34;56.42;101263.59;4970493;28;20050;-74
2023/06/12 06:08:38;;;;;;;8.77;5.18;;;;;;;21.53;54.78;101251.28;5000186;28;20038;-74
2023/06/12 06:11:04;;;;;;;8.95;4.60;;;;;;;21.75;54.33;101257.75;4988198;28;20491;-74
2023/06/12 06:13:31;;;;;;;8.93;5.00;;;;;;;22.07;52.16;101262.09;4985918;28;20058;-74
2023/06/12 06:15:57;;;;;;;9.45;4.88;;;;;;;22.27;52.58;101256.59;4969075;28;20030;-74
2023/06/12 06:18:26;;;;;;;10.77;4.68;;;;;;;22.47;52.15;101253.69;4992240;28;20393;-74
2023/06/12 06:20:52;;;;;;;7.05;4.38;;;;;;;22.51;51.39;101252.22;5005753;28;20621;-74
2023/06/12 06:23:18;;;;;;;8.55;4.90;;;;;;;22.55;50.32;101258.66;4990115;28;20045;-75
2023/06/12 06:25:44;;;;;;;10.93;4.72;;;;;;;22.60;50.97;101255.34;5007753;28;20428;-74
2023/06/12 06:28:10;;;;;;;10.73;4.72;;;;;;;22.66;51.05;101262.34;5002925;28;20038;-74
2023/06/12 06:30:38;;;;;;;8.02;4.68;;;;;;;23.05;50.42;101257.53;4984049;28;20042;-74
2023/06/12 06:33:03;;;;;;;10.18;5.32;;;;;;;23.18;48.60;101256.53;4981994;28;20030;-73
2023/06/12 06:35:29;;;;;;;8.93;5.60;;;;;;;23.40;47.07;101262.88;4977400;28;20041;-74
2023/06/12 06:37:56;;;;;;;7.95;4.97;;;;;;;23.55;46.96;101253.66;4963276;28;20556;-73
2023/06/12 06:40:22;;;;;;;7.82;4.80;;;;;;;23.80;45.64;101256.88;5005323;28;20061;-74
2023/06/12 06:42:47;;;;;;;10.60;5.03;;;;;;;24.16;46.53;101252.28;5006244;28;20050;-76
2023/06/12 06:45:19;;;;;;;10.60;5.80;;;;;;;24.42;45.71;101248.25;4993565;28;20053;-74
2023/06/12 06:47:45;;;;;;;10.57;5.20;;;;;;;24.76;45.48;101243.03;4987144;28;20515;-74
2023/06/12 06:50:11;;;;;;;11.20;5.60;;;;;;;24.65;42.99;101257.97;4984696;28;20050;-74
2023/06/12 06:52:37;;;;;;;8.57;5.32;;;;;;;24.74;44.15;101249.63;4986753;28;20022;-74
2023/06/12 06:55:04;;;;;;;9.38;4.55;;;;;;;24.87;43.71;101254.63;4985490;28;20077;-74
2023/06/12 06:57:33;;;;;;;14.25;5.93;;;;;;;24.78;43.28;101250.75;4986510;28;20018;-74
2023/06/12 07:00:02;;;;;;;20.25;9.32;;;;;;;24.82;42.15;101246.59;4986529;28;20081;-74
2023/06/12 07:02:28;;;;;;;7.60;5.35;;;;;;;24.96;42.34;101247.88;4983721;28;20034;-74
2023/06/12 07:04:54;;;;;;;11.45;6.22;;;;;;;25.27;41.12;101248.38;5000623;28;20069;-74
2023/06/12 07:07:24;;;;;;;13.65;4.88;;;;;;;25.59;40.74;101245.09;5000657;28;20129;-74
2023/06/12 07:09:49;;;;;;;7.85;4.60;;;;;;;25.74;40.52;101241.81;4970852;28;20050;-75
2023/06/12 07:12:15;;;;;;;11.18;4.85;;;;;;;26.08;40.21;101247.03;4979917;28;20045;-74
2023/06/12 07:14:41;;;;;;;7.78;4.72;;;;;;;26.26;39.71;101244.06;4981879;28;20081;-74
2023/06/12 07:17:06;;;;;;;9.02;5.05;;;;;;;26.28;39.34;101236.63;4980366;28;20092;-74
2023/06/12 07:19:32;;;;;;;7.75;5.20;;;;;;;26.36;39.90;101230.84;4995714;28;20042;-74
2023/06/12 07:21:57;;;;;;;8.40;5.15;;;;;;;26.92;40.13;101229.75;5005240;28;20056;-74
2023/06/12 07:24:23;;;;;;;7.18;4.88;;;;;;;27.40;38.85;101229.81;5003591;28;20053;-74
2023/06/12 07:26:48;;;;;;;8.50;4.72;;;;;;;27.68;38.23;101231.28;5000813;28;20444;-74
2023/06/12 07:29:15;;;;;;;8.50;4.78;;;;;;;27.52;37.58;101230.38;4991616;28;20130;-74
2023/06/12 07:31:40;;;;;;;8.48;5.13;;;;;;;27.26;37.61;101232.13;4986110;28;20038;-74
2023/06/12 07:34:06;;;;;;;8.70;5.10;;;;;;;27.21;38.03;101234.72;4994176;28;20081;-73
2023/06/12 07:36:35;;;;;;;11.63;5.28;;;;;;;27.27;37.99;101233.72;5001281;28;20604;-74
2023/06/12 07:39:04;;;;;;;14.05;5.05;;;;;;;27.33;36.71;101228.19;5001559;28;20050;-74
2023/06/12 07:41:29;;;;;;;8.27;4.97;;;;;;;27.73;36.91;101226.75;4985779;28;20567;-75
2023/06/12 07:43:56;;;;;;;9.73;5.05;;;;;;;27.97;36.86;101223.66;5003143;28;20053;-74
2023/06/12 07:46:25;;;;;;;9.45;4.55;;;;;;;28.17;36.45;101222.13;5003945;28;20026;-74
2023/06/12 07:48:51;;;;;;;7.95;4.30;;;;;;;28.00;36.80;101227.69;5002278;28;20056;-74
2023/06/12 07:51:17;;;;;;;8.02;5.03;;;;;;;27.78;36.76;101220.66;5004849;28;20025;-75
2023/06/12 07:53:42;;;;;;;8.85;4.70;;;;;;;28.08;36.74;101213.84;4985113;28;20511;-75
2023/06/12 07:56:16;;;;;;;7.72;5.30;;;;;;;28.32;36.35;101216.81;5002774;28;20030;-74
2023/06/12 07:58:48;;;;;;;10.13;4.72;;;;;;;28.60;35.93;101215.53;4995852;28;20042;-75
2023/06/12 08:01:14;;;;;;;6.70;5.03;;;;;;;28.64;34.66;101219.25;4981889;28;20100;-74
2023/06/12 08:03:43;;;;;;;7.57;4.90;;;;;;;28.77;34.85;101215.25;4999686;28;20039;-75
2023/06/12 08:06:11;;;;;;;7.90;4.78;;;;;;;28.46;35.27;101207.22;5002266;28;20052;-75
2023/06/12 08:08:45;;;;;;;8.05;4.63;;;;;;;29.02;35.19;101206.38;4999581;28;20042;-75
2023/06/12 08:11:12;;;;;;;6.78;4.57;;;;;;;29.41;35.26;101213.00;5001488;28;20026;-75
2023/06/12 08:13:40;;;;;;;8.40;4.75;;;;;;;29.62;34.13;101209.16;4974048;28;20049;-75
2023/06/12 08:16:08;;;;;;;7.13;5.00;;;;;;;29.89;33.30;101207.97;5002789;28;20030;-75
2023/06/12 08:18:33;;;;;;;8.77;5.03;;;;;;;29.75;34.40;101218.50;5002855;28;20050;-75
2023/06/12 08:21:02;;;;;;;9.18;4.63;;;;;;;29.98;33.74;101219.69;5003685;28;20026;-75
2023/06/12 08:23:28;;;;;;;10.52;4.45;;;;;;;30.12;33.29;101206.53;4998605;28;20038;-73
2023/06/12 08:25:56;;;;;;;7.85;4.60;;;;;;;30.45;32.67;101201.47;4983004;28;20509;-75
2023/06/12 08:28:21;;;;;;;8.57;4.47;;;;;;;30.30;32.64;101205.03;4987958;28;20100;-75
2023/06/12 08:30:47;;;;;;;9.70;5.25;;;;;;;30.46;32.83;101206.56;4985141;28;20018;-75
2023/06/12 08:33:15;;;;;;;7.40;4.97;;;;;;;29.85;33.17;101205.06;4983497;28;20034;-75
2023/06/12 08:35:42;;;;;;;9.93;4.63;;;;;;;29.84;34.06;101205.34;4984688;28;20052;-75
2023/06/12 08:38:07;;;;;;;4.97;4.13;;;;;;;29.75;33.83;101202.47;4984555;28;20037;-75
2023/06/12 08:40:34;;;;;;;14.52;5.50;;;;;;;29.31;34.29;101211.97;5004638;28;20025;-75
2023/06/12 08:43:00;;;;;;;8.07;4.60;;;;;;;29.87;33.81;101200.22;5003690;28;20026;-76
2023/06/12 08:45:26;;;;;;;12.55;5.25;;;;;;;29.95;33.74;101201.56;5004410;28;20022;-75
2023/06/12 08:47:55;;;;;;;13.82;4.63;;;;;;;30.17;34.06;101192.31;5003523;28;20037;-75
2023/06/12 08:50:20;;;;;;;8.85;4.32;;;;;;;30.53;33.52;101192.84;4985786;28;20052;-75
2023/06/12 08:52:54;;;;;;;6.80;4.85;;;;;;;30.86;32.33;101193.88;4988688;28;20033;-75
2023/06/12 08:55:21;;;;;;;7.82;4.40;;;;;;;30.92;32.13;101189.31;4983093;28;20049;-75
2023/06/12 08:57:47;;;;;;;20.10;5.97;;;;;;;31.26;32.47;101187.59;4986760;28;20026;-75
2023/06/12 09:00:14;;;;;;;9.77;4.70;;;;;;;31.61;31.63;101186.38;5002123;28;20066;-75
2023/06/12 09:02:47;;;;;;;7.60;4.20;;;;;;;31.63;31.32;101187.69;5003759;28;20029;-75
2023/06/12 09:05:29;;;;;;;7.70;4.93;;;;;;;31.62;31.38;101178.03;4986557;28;20054;-75
2023/06/12 09:07:57;;;;;;;5.57;4.57;;;;;;;31.14;31.46;101182.66;4981979;28;20039;-75
2023/06/12 09:10:22;;;;;;;7.25;4.85;;;;;;;31.18;32.15;101181.78;5004285;28;20100;-77
2023/06/12 09:12:52;;;;;;;6.90;5.15;;;;;;;31.08;31.15;101181.91;5003417;28;20026;-75
2023/06/12 09:15:18;;;;;;;7.40;4.50;;;;;;;31.35;31.60;101191.25;5004339;28;20042;-75
2023/06/12 09:17:47;;;;;;;8.00;4.45;;;;;;;30.87;30.76;101189.31;5005269;28;20396;-75
2023/06/12 09:20:33;;;;;;;8.20;4.68;;;;;;;31.16;30.56;101191.19;5001704;28;20136;-75
2023/06/12 09:23:04;;;;;;;8.52;5.00;;;;;;;31.38;30.22;101185.28;5001344;28;20117;-75
2023/06/12 09:25:35;;;;;;;10.10;4.40;;;;;;;31.39;30.98;101195.72;5005353;28;20092;-75
2023/06/12 09:28:03;;;;;;;5.95;4.53;;;;;;;31.08;31.41;101189.94;5004233;28;20030;-75
2023/06/12 09:30:32;;;;;;;6.30;4.60;;;;;;;31.20;31.35;101186.88;4987594;28;20038;-75
2023/06/12 09:33:07;;;;;;;7.78;4.55;;;;;;;31.41;31.35;101190.09;4984782;28;20038;-75
2023/06/12 09:35:48;;;;;;;10.20;4.78;;;;;;;31.34;30.64;101197.66;5000212;28;20038;-74
2023/06/12 09:38:14;;;;;;;7.78;5.28;;;;;;;31.45;31.37;101196.47;4979283;28;20465;-75
2023/06/12 09:40:42;;;;;;;9.25;5.00;;;;;;;31.68;31.20;101186.00;4978180;28;20062;-75
2023/06/12 09:43:08;;;;;;;6.20;4.20;;;;;;;31.76;30.92;101198.75;4969880;28;20036;-75
2023/06/12 09:45:33;;;;;;;8.55;4.43;;;;;;;31.78;30.91;101185.88;4984745;28;20038;-75
2023/06/12 09:48:08;;;;;;;6.07;4.55;;;;;;;31.54;31.01;101186.72;4980838;28;20027;-74
2023/06/12 09:50:34;;;;;;;11.45;4.70;;;;;;;31.36;29.60;101196.31;4984204;28;20058;-74
2023/06/12 09:53:00;;;;;;;6.70;4.30;;;;;;;31.17;30.95;101188.22;4994938;28;20034;-75
2023/06/12 09:55:27;;;;;;;13.05;4.07;;;;;;;31.25;30.33;101192.16;5004933;28;20044;-74
2023/06/12 09:57:55;;;;;;;5.82;4.50;;;;;;;31.13;30.51;101191.75;5008940;28;20117;-74
2023/06/12 10:00:21;;;;;;;9.23;4.40;;;;;;;31.16;30.79;101196.56;4986105;28;20061;-74
2023/06/12 10:03:04;;;;;;;8.63;4.38;;;;;;;31.10;31.20;101198.50;4986698;28;20058;-75
2023/06/12 10:05:43;;;;;;;8.32;4.72;;;;;;;31.23;30.93;101189.78;4986738;28;20073;-75
2023/06/12 10:08:09;;;;;;;14.20;4.95;;;;;;;30.89;31.37;101194.38;4984353;28;20027;-73
2023/06/12 10:10:35;;;;;;;11.93;4.88;;;;;;;30.96;31.45;101186.84;4984055;28;20041;-75
2023/06/12 10:13:02;;;;;;;7.88;5.20;;;;;;;31.41;32.47;101184.72;4988855;28;20034;-75
2023/06/12 10:15:29;;;;;;;7.72;4.10;;;;;;;31.61;30.69;101187.19;4989486;28;20033;-76
2023/06/12 10:17:55;;;;;;;10.27;4.70;;;;;;;31.66;29.71;101183.63;5006589;28;20022;-75
2023/06/12 10:20:22;;;;;;;9.48;4.50;;;;;;;31.32;29.38;101181.09;5005622;28;20056;-74
2023/06/12 10:22:50;;;;;;;4.80;3.88;;;;;;;31.41;30.74;101184.72;5002195;28;20125;-75
2023/06/12 10:25:19;;;;;;;5.25;4.10;;;;;;;31.36;30.58;101177.56;4999578;28;20082;-75
2023/06/12 10:27:45;;;;;;;8.95;4.13;;;;;;;31.47;30.17;101175.56;4996705;28;20140;-74
2023/06/12 10:30:12;;;;;;;10.00;5.15;;;;;;;32.00;30.70;101174.56;4986354;28;20408;-75
2023/06/12 10:32:41;;;;;;;8.05;4.25;;;;;;;32.23;29.15;101170.22;4984831;28;20437;-75
2023/06/12 10:35:07;;;;;;;12.13;4.40;;;;;;;32.00;30.02;101177.22;4997130;28;20042;-76
2023/06/12 10:37:46;;;;;;;7.63;4.13;;;;;;;32.27;29.99;101165.84;4982411;28;20069;-75
2023/06/12 10:40:18;;;;;;;6.88;4.30;;;;;;;31.74;28.58;101171.44;5000479;28;20532;-75
2023/06/12 10:42:48;;;;;;;5.57;4.10;;;;;;;32.04;29.63;101167.53;5003343;28;20406;-75
2023/06/12 10:45:17;;;;;;;15.18;4.03;;;;;;;32.17;29.90;101157.97;5002964;28;20045;-75
2023/06/12 10:47:58;;;;;;;13.52;6.38;;;;;;;32.20;29.09;101168.13;5007019;28;20413;-74
2023/06/12 10:50:25;;;;;;;15.88;4.72;;;;;;;31.58;29.43;101152.13;4983960;28;20504;-75
2023/06/12 10:52:55;;;;;;;6.28;3.92;;;;;;;31.41;30.05;101153.38;4987311;28;20600;-75
2023/06/12 10:55:21;;;;;;;7.63;4.10;;;;;;;31.71;29.89;101147.94;4985029;28;20042;-75
2023/06/12 10:57:54;;;;;;;7.20;4.57;;;;;;;31.71;30.44;101148.72;4986060;28;20031;-76
2023/06/12 11:00:22;;;;;;;5.25;3.75;;;;;;;32.30;29.69;101148.38;5006217;28;20092;-75
2023/06/12 11:03:18;;;;;;;6.63;4.00;;;;;;;32.24;29.46;101147.66;5004430;28;20022;-75
2023/06/12 11:05:54;;;;;;;11.13;4.10;;;;;;;32.49;29.03;101142.94;5004410;28;20104;-75
2023/06/12 11:08:20;;;;;;;5.32;4.03;;;;;;;32.55;27.56;101139.88;5005542;28;20133;-76
2023/06/12 11:10:48;;;;;;;6.15;3.60;;;;;;;32.51;27.29;101144.25;5006577;28;20120;-74
2023/06/12 11:13:14;;;;;;;5.80;3.78;;;;;;;32.56;28.46;101149.50;5004727;28;20042;-75
2023/06/12 11:15:45;;;;;;;6.60;4.03;;;;;;;32.54;27.66;101140.97;5006675;28;20052;-75
2023/06/12 11:18:12;;;;;;;5.40;4.38;;;;;;;32.48;28.03;101144.03;5004549;28;20018;-76
2023/06/12 11:20:38;;;;;;;4.30;3.75;;;;;;;32.12;27.29;101145.44;5006266;28;20447;-75
2023/06/12 11:23:05;;;;;;;6.30;3.88;;;;;;;32.18;28.85;101140.78;5000369;28;20038;-76
2023/06/12 11:25:44;;;;;;;4.85;3.45;;;;;;;32.58;28.84;101138.50;4981169;28;20078;-75
2023/06/12 11:28:12;;;;;;;5.45;3.90;;;;;;;32.81;27.59;101141.31;4977557;28;20381;-75